• Join FlightAware (Why Join?)
  • Login
  • US Flag 
05:19PM EST


 

Airport Tracker/Info


-or-


 

Live Flight TrackerFlight Track Log ✈ JZA7655 ✈ 07-Oct-2013 ✈ KDCA - CYUL

Flight Track Log - Related Links

Times and Time Zones

All times are in EDT time to prevent confusion due to time zone crossing. See the JZA7655 flight status page for this flight to view local times or setup timezone preferences in your user account.

Time Position Orientation Groundspeed Altitude Reporting Facility
EDT Latitude Longitude Course Direction KTS MPH feet Rate Location/Type
05:07PM 38.8833 -77.0667 North 161 185 2,500  Level Potomac TRACON
05:08PM 38.9333 -77.1167 322° Northwest 215 247 5,200 2,460 Climbing Potomac TRACON
05:09PM 38.9833 -77.1667 322° Northwest 254 292 7,500 2,460 Climbing Potomac TRACON
05:10PM 39.0000 -77.2500 284° West 261 300 10,200 2,580 Climbing Potomac TRACON
05:11PM 39.0500 -77.3500 303° West 270 311 12,800 2,460 Climbing Potomac TRACON
05:12PM 39.6343 -77.4500 North  Level FlightAware Approximate
05:12PM 39.0833 -77.4333 297° West 297 342 15,200  Level Potomac TRACON
05:13PM 39.1667 -77.4500 351° North 323 372 17,000 780 Climbing Potomac TRACON
05:15PM 39.3347 -77.4539 359° North 378 435 17,400 1,380 Climbing Washington Center
05:17PM 39.5694 -77.4561 360° North 397 457 22,400 1,920 Climbing New York Center
05:18PM 39.6800 -77.4583 359° North 392 451 23,300 960 Climbing New York Center
05:19PM 39.7989 -77.4211 14° North 400 460 24,400 1,020 Climbing New York Center
05:20PM 39.9158 -77.3781 16° North 415 478 25,400 900 Climbing New York Center
05:21PM 40.0394 -77.3328 16° North 440 506 26,300 720 Climbing New York Center
05:22PM 40.1647 -77.2903 15° North 452 520 26,900 600 Climbing New York Center
05:23PM 40.2772 -77.2544 14° North 457 526 27,600 720 Climbing New York Center
05:24PM 40.4069 -77.2094 15° North 470 541 28,400 900 Climbing New York Center
05:25PM 40.5386 -77.1644 15° North 476 548 29,400 900 Climbing New York Center
05:26PM 40.6725 -77.1167 15° North 488 562 30,200 720 Climbing New York Center
05:27PM 40.8064 -77.0686 15° North 488 562 30,900 600 Climbing New York Center
05:28PM 40.9422 -77.0208 15° North 493 567 31,400 600 Climbing New York Center
05:29PM 41.0819 -76.9814 12° North 500 575 32,100 540 Climbing New York Center
05:30PM 41.2197 -76.9358 14° North 506 582 32,500 420 Climbing New York Center
05:31PM 41.3614 -76.8964 12° North 506 582 33,000 240 Climbing New York Center
05:32PM 41.5225 -76.8419 14° North 529 609 33,000  Level New York Center
05:33PM 41.6683 -76.7967 13° North 540 621 33,000  Level New York Center
05:34PM 41.9081 -76.7250 13° North 553 636 33,000  Level Cleveland Center
05:35PM 42.0586 -76.6772 13° North 558 642 33,000  Level Cleveland Center
05:36PM 42.2083 -76.6306 13° North 557 641 33,000  Level Cleveland Center
05:37PM 42.3594 -76.5831 13° North 561 646 33,000  Level Cleveland Center
05:38PM 42.4825 -76.5425 14° North 564 649 33,000  Level Boston Center
05:39PM 42.6344 -76.4961 13° North 559 643 33,000  Level Boston Center
05:40PM 42.7842 -76.4494 13° North 554 638 33,000  Level Boston Center
05:41PM 42.9233 -76.4044 13° North 559 643 33,000  Level Boston Center
05:42PM 43.0753 -76.3544 14° North 559 643 33,000  Level Boston Center
05:43PM 43.2289 -76.3075 13° North 554 638 33,000  Level Boston Center
05:44PM 43.3831 -76.2544 14° North 554 638 33,000  Level Boston Center
05:45PM 43.5347 -76.2067 13° North 559 643 33,000  Level Boston Center
05:46PM 43.6906 -76.1531 14° North 559 643 33,000  Level Boston Center
05:47PM 43.8444 -76.1022 13° North 559 643 33,000  Level Boston Center
05:48PM 43.9928 -76.0303 19° North 559 643 33,000 -540 Level Boston Center
05:49PM 44.1278 -75.9111 32° Northeast 554 638 32,000 -1,380 Descending Boston Center
05:50PM 44.2647 -75.7886 33° Northeast 567 652 30,300 -1,800 Descending Boston Center
05:51PM 44.3908 -75.6739 33° Northeast 562 647 28,500 -1,860 Descending Boston Center
05:52PM 44.4667 -75.6000 35° Northeast 550 633 27,300 -1,740 Descending Montreal Center
05:53PM 44.6000 -75.4667 35° Northeast 540 621 25,600 -1,680 Descending Montreal Center
05:54PM 44.7333 -75.3500 32° Northeast 530 610 24,000 -1,500 Descending Montreal Center
05:55PM 44.8500 -75.2667 27° Northeast 500 575 22,600 -1,500 Descending Montreal Center
05:56PM 44.9500 -75.1333 43° Northeast 460 529 21,100 -1,380 Descending Montreal Center
05:57PM 45.0333 -75.0167 45° Northeast 440 506 19,900 -1,200 Descending Montreal Center
05:58PM 45.0667 -74.8500 74° East 410 472 18,800 -1,200 Descending Montreal Center
05:59PM 45.1167 -74.7167 62° Northeast 390 449 17,600 -1,080 Descending Montreal Center
06:00PM 45.1500 -74.5667 72° East 390 449 16,700 -1,020 Descending Montreal Center
06:01PM 45.2000 -74.4167 65° Northeast 390 449 15,600 -1,080 Descending Montreal Center
06:02PM 45.2500 -74.2833 62° Northeast 390 449 14,600 -1,020 Descending Montreal Center
06:03PM 45.3167 -74.1500 55° Northeast 380 437 13,600 -1,320 Descending Montreal Center
06:04PM 45.3500 -74.0333 68° East 370 426 12,000 -1,980 Descending Montreal Center
06:05PM 45.4333 -73.9333 40° Northeast 360 414 9,700 -1,980 Descending Montreal Center
06:06PM 45.5000 -73.8333 46° Northeast 310 357 8,100 -1,500 Descending Montreal Center
06:07PM 45.5667 -73.7667 35° Northeast 290 334 6,700 -1,380 Descending Montreal Center
06:08PM 45.6167 -73.7000 43° Northeast 270 311 5,400 -1,200 Descending Montreal Center
06:09PM 45.6667 -73.6167 49° Northeast 260 299 4,300 -660 Descending Montreal Center
06:10PM 45.7333 -73.5667 28° Northeast 250 288 4,100 -180 Descending Montreal Center
06:11PM 45.7333 -73.4667 90° East 230 265 4,000 -300 Descending Montreal Center
06:12PM 45.6833 -73.4667 180° South 180 207 3,600 -480 Descending Montreal Center
06:13PM 45.6333 -73.5000 205° Southwest 170 196 3,100 -300 Descending Montreal Center
06:14PM 45.6167 -73.5500 245° Southwest 150 173 3,100 -60 Level Montreal Center
06:15PM 45.5833 -73.6000 226° Southwest 130 150 3,000 -360 Descending Montreal Center
06:16PM 45.5500 -73.6167 199° South 130 150 2,400 -660 Descending Montreal Center
06:17PM 45.5333 -73.6500 234° Southwest 130 150 1,700 -780 Descending Montreal Center
06:18PM 45.5000 -73.7000 226° Southwest 130 150 900 -720 Descending Montreal Center
06:19PM 45.4667 -73.7167 199° South 110 127 300 -360 Descending Montreal Center
06:20PM 45.4500 -73.7500 235° Southwest 60 69 200 -120 Descending Montreal Center
06:21PM 45.4500 -73.7500 235° Southwest 20 23 100 -120 Descending Montreal Center